createdAt,value
2022-11-11T00:00:20.633Z,101476.31
2022-11-11T00:01:18.586Z,101477.78
2022-11-11T00:01:59.300Z,101471.50
2022-11-11T00:02:39.579Z,101490.41
2022-11-11T00:03:26.904Z,101483.28
2022-11-11T00:04:21.565Z,101476.31
2022-11-11T00:05:15.580Z,101479.13
2022-11-11T00:06:15.578Z,101476.31
2022-11-11T00:07:09.615Z,101475.78
2022-11-11T00:08:05.564Z,101478.75
2022-11-11T00:08:46.587Z,101478.38
2022-11-11T00:09:26.602Z,101472.88
2022-11-11T00:10:06.557Z,101460.34
2022-11-11T00:10:46.771Z,101474.22
2022-11-11T00:11:26.574Z,101465.25
2022-11-11T00:12:06.620Z,101464.69
2022-11-11T00:12:46.555Z,101462.25
2022-11-11T00:13:26.817Z,101459.97
2022-11-11T00:14:06.575Z,101462.56
2022-11-11T00:14:46.608Z,101466.03
2022-11-11T00:15:26.554Z,101470.75
2022-11-11T00:16:20.627Z,101459.56
2022-11-11T00:17:19.552Z,101465.25
2022-11-11T00:18:18.117Z,101468.44
2022-11-11T00:19:17.579Z,101460.72
2022-11-11T00:20:18.797Z,101467.28
2022-11-11T00:21:17.563Z,101468.53
2022-11-11T00:22:16.639Z,101466.50
2022-11-11T00:23:15.551Z,101470.56
2022-11-11T00:24:14.570Z,101475.47
2022-11-11T00:25:13.669Z,101469.78
2022-11-11T00:26:06.271Z,101471.13
2022-11-11T00:26:52.619Z,101470.13
2022-11-11T00:27:32.648Z,101478.44
2022-11-11T00:28:13.600Z,101476.53
2022-11-11T00:28:53.617Z,101474.69
2022-11-11T00:29:33.536Z,101466.88
2022-11-11T00:30:21.626Z,101474.00
2022-11-11T00:31:20.549Z,101471.91
2022-11-11T00:32:29.575Z,101472.06
2022-11-11T00:33:23.554Z,101471.69
2022-11-11T00:34:17.552Z,101472.56
2022-11-11T00:35:30.609Z,101479.22
2022-11-11T00:36:25.523Z,101485.38
2022-11-11T00:37:19.595Z,101468.81
2022-11-11T00:38:43.540Z,101489.22
2022-11-11T00:39:37.554Z,101486.91
2022-11-11T00:40:31.588Z,101490.56
2022-11-11T00:41:30.541Z,101487.09
2022-11-11T00:42:24.571Z,101487.69
2022-11-11T00:43:18.517Z,101487.09
2022-11-11T00:44:12.628Z,101489.88
2022-11-11T00:45:07.562Z,101489.78
2022-11-11T00:45:54.600Z,101479.06
2022-11-11T00:46:47.103Z,101498.31
2022-11-11T00:47:53.609Z,101495.50
2022-11-11T00:48:46.317Z,101490.66
2022-11-11T00:49:52.587Z,101493.09
2022-11-11T00:50:48.608Z,101491.31
2022-11-11T00:51:28.558Z,101494.59
2022-11-11T00:52:08.743Z,101490.16
2022-11-11T00:52:51.521Z,101488.63
2022-11-11T00:53:38.849Z,101481.97
2022-11-11T00:54:19.587Z,101482.66
2022-11-11T00:54:59.578Z,101481.13
2022-11-11T00:55:40.518Z,101483.88
2022-11-11T00:56:20.661Z,101488.25
2022-11-11T00:57:00.609Z,101485.63
2022-11-11T00:57:40.662Z,101484.94
2022-11-11T00:58:23.938Z,101496.50
2022-11-11T00:59:04.686Z,101490.59
2022-11-11T00:59:46.541Z,101491.69
2022-11-11T01:00:26.636Z,101487.00
2022-11-11T01:01:07.530Z,101482.38
2022-11-11T01:01:47.723Z,101492.88
2022-11-11T01:02:27.609Z,101492.13
2022-11-11T01:03:07.578Z,101482.47
2022-11-11T01:03:47.530Z,101494.88
2022-11-11T01:04:29.612Z,101495.19
2022-11-11T01:05:10.563Z,101484.56
2022-11-11T01:05:51.455Z,101491.31
2022-11-11T01:06:32.591Z,101477.25
2022-11-11T01:07:12.667Z,101487.28
2022-11-11T01:07:56.615Z,101476.97
2022-11-11T01:08:38.609Z,101494.38
2022-11-11T01:09:18.499Z,101489.97
2022-11-11T01:09:58.625Z,101493.25
2022-11-11T01:10:44.537Z,101486.78
2022-11-11T01:11:28.580Z,101488.59
2022-11-11T01:12:09.607Z,101488.41
2022-11-11T01:12:49.583Z,101486.50
2022-11-11T01:13:33.595Z,101489.16
2022-11-11T01:14:13.610Z,101480.91
2022-11-11T01:14:53.603Z,101482.44
2022-11-11T01:15:33.712Z,101482.16
2022-11-11T01:16:18.586Z,101483.75
2022-11-11T01:16:58.547Z,101478.56
2022-11-11T01:17:39.535Z,101488.75
2022-11-11T01:18:23.221Z,101489.88
2022-11-11T01:19:03.564Z,101477.09
2022-11-11T01:19:43.658Z,101489.34
2022-11-11T01:20:23.496Z,101483.75
2022-11-11T01:21:15.695Z,101482.22
2022-11-11T01:21:55.495Z,101470.25
2022-11-11T01:22:35.620Z,101484.38
2022-11-11T01:23:18.514Z,101484.97
2022-11-11T01:23:59.653Z,101489.28
2022-11-11T01:24:39.549Z,101464.63
2022-11-11T01:25:19.579Z,101484.31
2022-11-11T01:25:59.592Z,101475.81
2022-11-11T01:26:39.602Z,101482.59
2022-11-11T01:27:19.565Z,101483.53
2022-11-11T01:27:59.597Z,101487.63
2022-11-11T01:28:40.530Z,101484.03
2022-11-11T01:29:20.558Z,101489.41
2022-11-11T01:30:00.675Z,101473.81
2022-11-11T01:30:41.669Z,101479.31
2022-11-11T01:31:23.506Z,101488.00
2022-11-11T01:32:04.533Z,101483.16
2022-11-11T01:32:44.509Z,101486.06
2022-11-11T01:33:24.669Z,101490.22
2022-11-11T01:34:05.546Z,101483.25
2022-11-11T01:34:45.676Z,101484.50
2022-11-11T01:35:25.615Z,101478.94
2022-11-11T01:36:15.645Z,101487.88
2022-11-11T01:36:55.500Z,101477.22
2022-11-11T01:37:35.576Z,101477.22
2022-11-11T01:38:17.501Z,101468.69
2022-11-11T01:39:06.709Z,101467.81
2022-11-11T01:39:47.476Z,101477.63
2022-11-11T01:40:34.538Z,101470.25
2022-11-11T01:41:41.529Z,101466.50
2022-11-11T01:42:35.500Z,101464.66
2022-11-11T01:43:33.511Z,101467.00
2022-11-11T01:44:33.477Z,101465.16
2022-11-11T01:46:10.653Z,101471.06
2022-11-11T01:47:13.499Z,101446.59
2022-11-11T01:48:45.469Z,101464.72
2022-11-11T01:50:06.621Z,101452.53
2022-11-11T01:51:00.544Z,101449.28
2022-11-11T01:51:48.495Z,101457.97
2022-11-11T01:52:41.569Z,101457.97
2022-11-11T01:53:21.744Z,101455.44
2022-11-11T01:54:07.633Z,101453.88
2022-11-11T01:55:13.473Z,101456.22
2022-11-11T01:55:53.510Z,101450.59
2022-11-11T01:56:34.468Z,101458.25
2022-11-11T01:57:22.537Z,101455.13
2022-11-11T01:57:57.647Z,101456.19
2022-11-11T01:58:44.458Z,101455.31
2022-11-11T01:59:20.561Z,101453.59
2022-11-11T02:00:12.509Z,101456.69
2022-11-11T02:00:47.681Z,101450.59
2022-11-11T02:01:35.509Z,101462.84
2022-11-11T02:02:17.701Z,101463.53
2022-11-11T02:03:02.634Z,101457.19
2022-11-11T02:04:07.621Z,101454.09
2022-11-11T02:05:06.581Z,101462.56
2022-11-11T02:05:46.721Z,101462.94
2022-11-11T02:06:27.441Z,101462.75
2022-11-11T02:07:11.779Z,101462.94
2022-11-11T02:07:52.579Z,101461.91
2022-11-11T02:08:39.511Z,101471.03
2022-11-11T02:09:14.620Z,101463.31
2022-11-11T02:10:02.674Z,101462.94
2022-11-11T02:10:39.586Z,101477.00
2022-11-11T02:11:49.546Z,101477.88
2022-11-11T02:12:42.284Z,101475.28
2022-11-11T02:13:48.474Z,101460.72
2022-11-11T02:14:37.696Z,101466.44
2022-11-11T02:15:24.469Z,101471.81
2022-11-11T02:16:05.506Z,101476.69
2022-11-11T02:16:45.448Z,101471.28
2022-11-11T02:17:26.928Z,101484.22
2022-11-11T02:18:07.427Z,101479.00
2022-11-11T02:18:56.641Z,101487.63
2022-11-11T02:19:55.851Z,101476.41
2022-11-11T02:20:46.594Z,101489.94
2022-11-11T02:21:35.357Z,101490.59
2022-11-11T02:22:30.487Z,101498.56
2022-11-11T02:23:10.984Z,101485.47
2022-11-11T02:24:20.466Z,101494.53
2022-11-11T02:24:54.885Z,101501.66
2022-11-11T02:25:44.436Z,101486.72
2022-11-11T02:26:19.090Z,101490.31
2022-11-11T02:27:09.515Z,101499.94
2022-11-11T02:27:49.618Z,101500.91
2022-11-11T02:28:39.600Z,101499.75
2022-11-11T02:29:18.418Z,101495.69
2022-11-11T02:30:02.593Z,101501.84
2022-11-11T02:30:36.523Z,101495.59
2022-11-11T02:31:10.168Z,101493.06
2022-11-11T02:31:50.471Z,101491.19
2022-11-11T02:32:24.561Z,101496.09
2022-11-11T02:32:58.175Z,101478.06
2022-11-11T02:33:39.576Z,101494.91
2022-11-11T02:34:13.471Z,101492.63
2022-11-11T02:34:47.361Z,101486.91
2022-11-11T02:35:32.498Z,101482.59
2022-11-11T02:36:07.518Z,101478.94
2022-11-11T02:36:42.557Z,101496.63
2022-11-11T02:37:34.439Z,101482.88
2022-11-11T02:38:09.586Z,101490.47
2022-11-11T02:38:44.663Z,101491.63
2022-11-11T02:39:42.424Z,101492.19
2022-11-11T02:40:23.637Z,101497.19
2022-11-11T02:41:22.598Z,101500.00
2022-11-11T02:42:10.024Z,101495.47
2022-11-11T02:42:50.452Z,101500.50
2022-11-11T02:43:30.451Z,101493.19
2022-11-11T02:44:10.506Z,101487.63
2022-11-11T02:44:50.635Z,101492.63
2022-11-11T02:45:30.515Z,101486.56
2022-11-11T02:46:13.522Z,101485.28
2022-11-11T02:46:53.512Z,101491.44
2022-11-11T02:47:33.660Z,101477.38
2022-11-11T02:48:13.550Z,101482.41
2022-11-11T02:48:53.681Z,101472.34
2022-11-11T02:49:34.457Z,101476.59
2022-11-11T02:50:15.601Z,101481.91
2022-11-11T02:50:55.472Z,101477.38
2022-11-11T02:51:35.456Z,101476.41
2022-11-11T02:52:15.571Z,101472.75
2022-11-11T02:52:55.511Z,101476.31
2022-11-11T02:53:35.437Z,101474.41
2022-11-11T02:54:15.613Z,101469.13
2022-11-11T02:54:56.474Z,101468.69
2022-11-11T02:55:36.497Z,101464.88
2022-11-11T02:56:16.510Z,101465.13
2022-11-11T02:57:08.434Z,101472.75
2022-11-11T02:57:48.597Z,101473.91
2022-11-11T02:58:28.481Z,101474.09
2022-11-11T02:59:08.462Z,101469.47
2022-11-11T02:59:48.473Z,101476.25
2022-11-11T03:00:28.603Z,101470.66
2022-11-11T03:01:08.502Z,101478.63
2022-11-11T03:01:48.440Z,101485.50
2022-11-11T03:02:58.527Z,101481.16
2022-11-11T03:03:32.766Z,101485.00
2022-11-11T03:04:19.444Z,101492.63
2022-11-11T03:04:57.226Z,101493.50
2022-11-11T03:05:45.580Z,101485.50
2022-11-11T03:06:19.298Z,101502.19
2022-11-11T03:07:06.676Z,101499.56
2022-11-11T03:07:41.252Z,101500.34
2022-11-11T03:08:22.477Z,101505.44
2022-11-11T03:08:56.479Z,101504.03
2022-11-11T03:09:30.530Z,101503.06
2022-11-11T03:10:11.387Z,101492.44
2022-11-11T03:10:45.492Z,101502.84
2022-11-11T03:11:27.894Z,101499.41
2022-11-11T03:12:08.609Z,101493.66
2022-11-11T03:12:42.481Z,101488.00
2022-11-11T03:13:16.463Z,101484.31
2022-11-11T03:13:56.573Z,101494.75
2022-11-11T03:14:30.470Z,101493.78
2022-11-11T03:15:05.312Z,101485.50
2022-11-11T03:15:46.607Z,101496.88
2022-11-11T03:16:39.255Z,101493.66
2022-11-11T03:17:31.897Z,101481.00
2022-11-11T03:18:11.511Z,101481.44
2022-11-11T03:18:45.604Z,101485.09
2022-11-11T03:19:25.401Z,101492.13
2022-11-11T03:20:23.957Z,101493.38
2022-11-11T03:21:56.606Z,101480.59
2022-11-11T03:23:20.493Z,101493.19
2022-11-11T03:24:00.401Z,101494.75
2022-11-11T03:25:13.396Z,101494.03
2022-11-11T03:25:58.064Z,101508.81
2022-11-11T03:26:39.394Z,101502.34
2022-11-11T03:27:19.429Z,101505.16
2022-11-11T03:27:59.387Z,101503.06
2022-11-11T03:28:39.412Z,101503.41
2022-11-11T03:29:19.380Z,101503.81
2022-11-11T03:29:59.417Z,101507.47
2022-11-11T03:30:39.386Z,101506.72
2022-11-11T03:31:19.399Z,101509.47
2022-11-11T03:31:59.358Z,101506.00
2022-11-11T03:32:39.413Z,101499.75
2022-11-11T03:33:20.458Z,101510.53
2022-11-11T03:34:18.067Z,101504.72
2022-11-11T03:34:58.384Z,101498.19
2022-11-11T03:35:46.396Z,101495.41
2022-11-11T03:36:20.086Z,101506.38
2022-11-11T03:37:26.380Z,101505.69
2022-11-11T03:38:24.776Z,101490.78
2022-11-11T03:39:04.349Z,101511.28
2022-11-11T03:39:44.464Z,101511.88
2022-11-11T03:40:24.359Z,101479.84
2022-11-11T03:41:05.374Z,101509.53
2022-11-11T03:41:39.406Z,101507.53
2022-11-11T03:42:26.368Z,101503.56
2022-11-11T03:43:04.667Z,101500.50
2022-11-11T03:43:52.344Z,101503.19
2022-11-11T03:44:28.356Z,101501.53
2022-11-11T03:45:16.354Z,101492.81
2022-11-11T03:45:51.480Z,101499.94
2022-11-11T03:46:31.377Z,101499.53
2022-11-11T03:47:25.360Z,101485.81
2022-11-11T03:48:20.361Z,101496.13
2022-11-11T03:49:14.351Z,101498.41
2022-11-11T03:50:08.348Z,101497.81
2022-11-11T03:51:02.490Z,101490.59
2022-11-11T03:51:49.384Z,101497.50
2022-11-11T03:52:23.391Z,101501.84
2022-11-11T03:53:11.363Z,101499.63
2022-11-11T03:53:45.400Z,101494.50
2022-11-11T03:54:32.351Z,101495.69
2022-11-11T03:55:06.391Z,101510.72
2022-11-11T03:55:54.338Z,101503.97
2022-11-11T03:56:28.388Z,101501.16
2022-11-11T03:57:27.360Z,101505.31
2022-11-11T03:58:07.379Z,101511.06
2022-11-11T03:58:47.341Z,101511.94
2022-11-11T03:59:27.404Z,101513.78
2022-11-11T04:00:13.793Z,101520.91
2022-11-11T04:00:55.563Z,101521.13
2022-11-11T04:01:54.472Z,101519.28
2022-11-11T04:02:59.371Z,101526.38
2022-11-11T04:04:11.349Z,101527.94
2022-11-11T04:05:23.348Z,101530.88
2022-11-11T04:06:36.434Z,101529.56
2022-11-11T04:07:48.369Z,101535.59
2022-11-11T04:08:48.347Z,101527.81
2022-11-11T04:09:46.934Z,101530.13
2022-11-11T04:10:30.332Z,101514.59
2022-11-11T04:11:15.381Z,101516.94
2022-11-11T04:11:56.336Z,101525.72
2022-11-11T04:12:57.363Z,101535.34
2022-11-11T04:13:56.372Z,101527.94
2022-11-11T04:14:55.034Z,101525.72
2022-11-11T04:15:54.343Z,101524.16
2022-11-11T04:16:34.360Z,101529.34
2022-11-11T04:17:14.321Z,101535.53
2022-11-11T04:17:54.376Z,101525.63
2022-11-11T04:18:53.381Z,101532.47
2022-11-11T04:19:52.360Z,101530.38
2022-11-11T04:20:45.199Z,101533.84
2022-11-11T04:21:50.336Z,101524.97
2022-11-11T04:22:24.354Z,101519.06
2022-11-11T04:23:11.333Z,101518.41
2022-11-11T04:23:45.364Z,101539.59
2022-11-11T04:24:51.305Z,101542.44
2022-11-11T04:25:51.342Z,101545.84
2022-11-11T04:26:45.327Z,101540.72
2022-11-11T04:27:39.307Z,101552.81
2022-11-11T04:28:51.316Z,101550.38
2022-11-11T04:29:46.325Z,101536.81
2022-11-11T04:30:26.332Z,101541.19
2022-11-11T04:31:07.339Z,101540.31
2022-11-11T04:32:08.331Z,101513.63
2022-11-11T04:32:48.366Z,101544.78
2022-11-11T04:33:28.323Z,101530.75
2022-11-11T04:34:08.361Z,101530.53
2022-11-11T04:34:51.307Z,101532.47
2022-11-11T04:35:45.337Z,101518.19
2022-11-11T04:36:39.331Z,101526.88
2022-11-11T04:37:34.326Z,101543.06
2022-11-11T04:38:46.333Z,101526.63
2022-11-11T04:39:58.329Z,101532.97
2022-11-11T04:41:10.358Z,101545.59
2022-11-11T04:42:08.794Z,101538.69
2022-11-11T04:43:07.295Z,101518.78
2022-11-11T04:44:19.325Z,101528.78
2022-11-11T04:45:32.337Z,101534.44
2022-11-11T04:46:26.346Z,101515.72
2022-11-11T04:47:20.306Z,101530.41
2022-11-11T04:48:20.302Z,101522.00
2022-11-11T04:49:14.299Z,101515.25
2022-11-11T04:50:08.306Z,101514.00
2022-11-11T04:51:02.286Z,101514.56
2022-11-11T04:52:08.400Z,101502.41
2022-11-11T04:52:42.335Z,101516.31
2022-11-11T04:53:29.309Z,101497.38
2022-11-11T04:54:03.336Z,101503.25
2022-11-11T04:55:09.288Z,101502.13
2022-11-11T04:56:02.123Z,101500.66
2022-11-11T04:56:56.288Z,101503.47
2022-11-11T04:57:37.315Z,101510.47
2022-11-11T04:58:34.310Z,101503.25
2022-11-11T04:59:28.303Z,101501.72
2022-11-11T05:00:30.444Z,101509.72
2022-11-11T05:01:45.297Z,101484.16
2022-11-11T05:02:57.328Z,101488.31
2022-11-11T05:03:51.283Z,101502.59
2022-11-11T05:04:45.300Z,101497.00
2022-11-11T05:06:00.306Z,101493.91
2022-11-11T05:07:12.326Z,101489.22
2022-11-11T05:08:24.304Z,101483.13
2022-11-11T05:09:18.272Z,101489.97
2022-11-11T05:10:12.255Z,101477.03
2022-11-11T05:11:06.284Z,101493.81
2022-11-11T05:12:00.282Z,101487.16
2022-11-11T05:12:54.279Z,101477.91
2022-11-11T05:14:00.319Z,101489.38
2022-11-11T05:14:53.067Z,101493.41
2022-11-11T05:15:59.304Z,101501.56
2022-11-11T05:16:54.708Z,101501.66
2022-11-11T05:18:00.315Z,101493.13
2022-11-11T05:18:52.755Z,101505.72
2022-11-11T05:19:51.302Z,101508.31
2022-11-11T05:20:50.020Z,101497.22
2022-11-11T05:21:35.263Z,101505.72
2022-11-11T05:22:28.382Z,101506.25
2022-11-11T05:23:08.247Z,101503.09
2022-11-11T05:24:06.714Z,101506.50
2022-11-11T05:25:05.314Z,101502.25
2022-11-11T05:25:45.310Z,101509.66
2022-11-11T05:26:31.785Z,101501.38
2022-11-11T05:27:12.292Z,101502.44
2022-11-11T05:27:52.252Z,101496.34
2022-11-11T05:28:32.316Z,101505.72
2022-11-11T05:29:12.252Z,101513.00
2022-11-11T05:29:52.274Z,101497.72
2022-11-11T05:30:33.293Z,101507.25
2022-11-11T05:31:13.311Z,101507.25
2022-11-11T05:31:53.265Z,101485.22
2022-11-11T05:32:34.308Z,101496.69
2022-11-11T05:33:14.274Z,101496.69
2022-11-11T05:33:55.346Z,101491.09
2022-11-11T05:34:35.269Z,101497.94
2022-11-11T05:35:16.436Z,101490.25
2022-11-11T05:35:56.275Z,101493.78
2022-11-11T05:36:36.265Z,101498.00
2022-11-11T05:37:17.259Z,101502.53
2022-11-11T05:38:16.043Z,101486.88
2022-11-11T05:38:56.243Z,101506.59
2022-11-11T05:39:36.296Z,101507.91
2022-11-11T05:40:19.246Z,101506.69
2022-11-11T05:41:08.251Z,101510.59
2022-11-11T05:42:02.261Z,101519.00
2022-11-11T05:42:57.235Z,101510.41
2022-11-11T05:43:51.285Z,101524.50
2022-11-11T05:44:45.274Z,101520.34
2022-11-11T05:45:39.234Z,101511.28
2022-11-11T05:46:26.250Z,101519.19
2022-11-11T05:47:00.297Z,101520.41
2022-11-11T05:47:47.233Z,101524.59
2022-11-11T05:48:21.271Z,101507.97
2022-11-11T05:49:23.265Z,101517.72
2022-11-11T05:49:57.377Z,101524.41
2022-11-11T05:50:47.257Z,101526.47
2022-11-11T05:51:38.148Z,101529.88
2022-11-11T05:52:33.231Z,101531.09
2022-11-11T05:53:30.248Z,101529.00
2022-11-11T05:54:25.228Z,101533.28
2022-11-11T05:55:20.250Z,101521.91
2022-11-11T05:56:14.247Z,101528.69
2022-11-11T05:56:54.287Z,101530.38
2022-11-11T05:57:34.274Z,101532.66
2022-11-11T05:58:14.227Z,101533.19
2022-11-11T05:58:54.402Z,101537.53
2022-11-11T05:59:34.230Z,101539.28
2022-11-11T06:00:15.277Z,101526.56
2022-11-11T06:00:55.228Z,101530.59
2022-11-11T06:01:35.353Z,101544.34
2022-11-11T06:02:16.285Z,101547.09
2022-11-11T06:02:57.289Z,101553.00
2022-11-11T06:03:37.242Z,101548.25
2022-11-11T06:04:18.565Z,101551.44
2022-11-11T06:05:00.258Z,101551.72
2022-11-11T06:05:43.302Z,101549.88
2022-11-11T06:06:23.229Z,101551.81
2022-11-11T06:07:03.483Z,101549.72
2022-11-11T06:07:47.233Z,101560.16
2022-11-11T06:08:27.256Z,101557.97
2022-11-11T06:09:08.213Z,101558.66
2022-11-11T06:09:48.273Z,101554.56
2022-11-11T06:10:37.225Z,101544.91
2022-11-11T06:11:17.273Z,101543.00
2022-11-11T06:11:57.220Z,101536.81
2022-11-11T06:13:04.237Z,101529.09
2022-11-11T06:13:58.204Z,101539.72
2022-11-11T06:14:52.215Z,101530.88
2022-11-11T06:15:46.228Z,101536.91
2022-11-11T06:16:40.226Z,101531.44
2022-11-11T06:17:34.257Z,101521.22
2022-11-11T06:18:21.237Z,101528.69
2022-11-11T06:18:56.273Z,101532.66
2022-11-11T06:19:43.211Z,101529.63
2022-11-11T06:20:17.286Z,101529.09
2022-11-11T06:21:06.223Z,101531.19
2022-11-11T06:21:58.509Z,101524.78
2022-11-11T06:23:04.217Z,101535.44
2022-11-11T06:23:45.287Z,101532.66
2022-11-11T06:24:39.224Z,101537.38
2022-11-11T06:25:51.241Z,101520.16
2022-11-11T06:26:45.296Z,101529.09
2022-11-11T06:27:39.220Z,101527.78
2022-11-11T06:28:33.188Z,101525.88
2022-11-11T06:29:13.231Z,101523.03
2022-11-11T06:30:03.237Z,101541.34
2022-11-11T06:30:54.234Z,101535.38
2022-11-11T06:31:34.252Z,101538.22
2022-11-11T06:32:14.237Z,101546.91
2022-11-11T06:32:54.277Z,101533.03
2022-11-11T06:33:35.183Z,101549.59
2022-11-11T06:34:22.222Z,101546.03
2022-11-11T06:35:16.185Z,101550.56
2022-11-11T06:36:10.259Z,101550.56
2022-11-11T06:37:04.213Z,101555.63
2022-11-11T06:37:58.246Z,101537.34
2022-11-11T06:38:53.209Z,101554.50
2022-11-11T06:39:40.193Z,101543.25
2022-11-11T06:40:21.381Z,101538.13
2022-11-11T06:41:10.200Z,101533.88
2022-11-11T06:41:44.377Z,101538.81
2022-11-11T06:42:32.207Z,101536.84
2022-11-11T06:43:07.325Z,101531.25
2022-11-11T06:43:55.203Z,101524.69
2022-11-11T06:44:29.316Z,101520.84
2022-11-11T06:45:10.217Z,101522.41
2022-11-11T06:45:50.233Z,101507.81
2022-11-11T06:46:32.181Z,101518.34
2022-11-11T06:47:12.215Z,101518.16
2022-11-11T06:47:52.192Z,101517.38
2022-11-11T06:48:35.237Z,101512.41
2022-11-11T06:49:15.189Z,101518.59
2022-11-11T06:49:55.267Z,101514.22
2022-11-11T06:50:36.218Z,101517.03
2022-11-11T06:51:17.305Z,101513.72
2022-11-11T06:51:58.192Z,101502.53
2022-11-11T06:52:38.277Z,101506.59
2022-11-11T06:53:22.431Z,101510.06
2022-11-11T06:54:03.210Z,101512.84
2022-11-11T06:54:43.151Z,101501.47
2022-11-11T06:55:23.383Z,101522.59
2022-11-11T06:56:04.196Z,101513.97
2022-11-11T06:56:44.222Z,101505.38
2022-11-11T06:57:24.183Z,101522.16
2022-11-11T06:58:21.320Z,101527.44
2022-11-11T06:59:01.168Z,101527.44
2022-11-11T06:59:41.254Z,101535.25
2022-11-11T07:00:22.157Z,101535.38
2022-11-11T07:01:02.310Z,101529.72
2022-11-11T07:01:42.229Z,101532.31
2022-11-11T07:02:54.230Z,101535.72
2022-11-11T07:03:34.178Z,101540.50
2022-11-11T07:04:14.215Z,101523.88
2022-11-11T07:04:54.169Z,101535.44
2022-11-11T07:05:34.193Z,101532.84
2022-11-11T07:06:15.165Z,101532.56
2022-11-11T07:07:02.228Z,101530.38
2022-11-11T07:07:56.173Z,101536.50
2022-11-11T07:08:51.180Z,101522.16
2022-11-11T07:09:45.191Z,101528.81
2022-11-11T07:10:39.168Z,101527.44
2022-11-11T07:11:33.161Z,101526.75
2022-11-11T07:12:21.184Z,101523.31
2022-11-11T07:13:01.189Z,101516.16
2022-11-11T07:13:41.152Z,101530.75
2022-11-11T07:14:21.203Z,101521.19
2022-11-11T07:15:01.168Z,101533.88
2022-11-11T07:15:42.370Z,101527.38
2022-11-11T07:16:23.160Z,101506.88
2022-11-11T07:17:06.206Z,101511.63
2022-11-11T07:17:48.180Z,101519.00
2022-11-11T07:18:28.437Z,101525.03
2022-11-11T07:19:09.191Z,101499.91
2022-11-11T07:19:49.376Z,101531.13
2022-11-11T07:20:29.168Z,101525.03
2022-11-11T07:21:10.211Z,101524.22
2022-11-11T07:21:50.213Z,101511.78
2022-11-11T07:22:33.068Z,101521.00
2022-11-11T07:23:17.235Z,101531.28
2022-11-11T07:23:58.359Z,101526.84
2022-11-11T07:24:38.152Z,101524.81
2022-11-11T07:25:18.178Z,101515.63
2022-11-11T07:25:58.134Z,101520.66
2022-11-11T07:26:39.170Z,101527.59
2022-11-11T07:27:19.131Z,101522.22
2022-11-11T07:27:59.757Z,101523.78
2022-11-11T07:28:40.189Z,101525.53
2022-11-11T07:29:20.383Z,101523.59
2022-11-11T07:30:00.154Z,101532.84
2022-11-11T07:30:41.176Z,101531.59
2022-11-11T07:31:21.158Z,101530.53
2022-11-11T07:32:02.594Z,101537.16
2022-11-11T07:32:44.179Z,101530.13
2022-11-11T07:33:24.926Z,101532.28
2022-11-11T07:34:05.179Z,101524.78
2022-11-11T07:34:46.425Z,101523.22
2022-11-11T07:35:28.215Z,101539.41
2022-11-11T07:36:09.198Z,101531.03
2022-11-11T07:36:49.139Z,101526.53
2022-11-11T07:37:30.234Z,101535.41
2022-11-11T07:38:10.128Z,101533.56
2022-11-11T07:38:50.181Z,101536.06
2022-11-11T07:39:30.166Z,101535.31
2022-11-11T07:40:11.288Z,101536.75
2022-11-11T07:40:51.144Z,101534.84
2022-11-11T07:41:32.192Z,101530.97
2022-11-11T07:42:30.389Z,101530.50
2022-11-11T07:43:11.242Z,101545.44
2022-11-11T07:43:52.141Z,101541.09
2022-11-11T07:44:42.008Z,101529.81
2022-11-11T07:45:19.232Z,101536.06
2022-11-11T07:46:06.155Z,101538.59
2022-11-11T07:46:40.038Z,101532.94
2022-11-11T07:47:28.156Z,101537.38
2022-11-11T07:48:02.416Z,101545.56
2022-11-11T07:48:49.201Z,101543.72
2022-11-11T07:49:23.321Z,101541.53
2022-11-11T07:50:07.634Z,101538.56
2022-11-11T07:50:42.175Z,101543.94
2022-11-11T07:51:16.131Z,101553.56
2022-11-11T07:51:56.126Z,101558.19
2022-11-11T07:52:30.186Z,101556.09
2022-11-11T07:53:05.051Z,101549.91
2022-11-11T07:53:46.184Z,101560.16
2022-11-11T07:54:20.218Z,101558.41
2022-11-11T07:54:55.214Z,101566.31
2022-11-11T07:55:36.181Z,101549.34
2022-11-11T07:56:10.554Z,101561.69
2022-11-11T07:56:45.741Z,101552.47
2022-11-11T07:57:27.125Z,101542.13
2022-11-11T07:58:02.978Z,101553.19
2022-11-11T07:58:37.004Z,101542.22
2022-11-11T07:59:18.127Z,101552.75
2022-11-11T07:59:52.157Z,101546.66
2022-11-11T08:00:27.109Z,101546.56
2022-11-11T08:01:08.972Z,101551.88
2022-11-11T08:01:43.153Z,101550.06
2022-11-11T08:02:18.146Z,101552.66
2022-11-11T08:02:59.173Z,101559.38
2022-11-11T08:03:34.243Z,101560.91
2022-11-11T08:04:08.109Z,101559.97
2022-11-11T08:04:54.793Z,101564.28
2022-11-11T08:05:29.162Z,101565.53
2022-11-11T08:06:03.645Z,101565.75
2022-11-11T08:06:44.252Z,101550.69
2022-11-11T08:07:25.205Z,101571.53
2022-11-11T08:08:12.149Z,101573.03
2022-11-11T08:08:52.164Z,101571.31
2022-11-11T08:09:32.122Z,101572.66
2022-11-11T08:10:13.225Z,101570.75
2022-11-11T08:10:53.092Z,101571.34
2022-11-11T08:11:58.122Z,101575.00
2022-11-11T08:12:50.425Z,101577.69
2022-11-11T08:13:49.145Z,101582.03
2022-11-11T08:14:23.671Z,101576.28
2022-11-11T08:15:11.504Z,101581.78
2022-11-11T08:15:49.131Z,101570.19
2022-11-11T08:16:36.209Z,101576.16
2022-11-11T08:17:17.153Z,101571.75
2022-11-11T08:17:58.312Z,101584.84
2022-11-11T08:18:38.098Z,101569.44
2022-11-11T08:19:19.140Z,101576.75
2022-11-11T08:19:59.100Z,101583.13
2022-11-11T08:20:44.474Z,101583.88
2022-11-11T08:21:26.112Z,101582.16
2022-11-11T08:22:07.222Z,101577.84
2022-11-11T08:23:07.333Z,101578.31
2022-11-11T08:24:56.840Z,101575.25
2022-11-11T08:25:07.009Z,101590.25
2022-11-11T08:25:48.170Z,101574.75
2022-11-11T08:26:30.166Z,101582.97
2022-11-11T08:27:11.771Z,101580.38
2022-11-11T08:27:53.171Z,101575.91
2022-11-11T08:28:36.756Z,101586.63
2022-11-11T08:29:18.088Z,101583.06
2022-11-11T08:29:58.228Z,101573.81
2022-11-11T08:30:39.073Z,101571.00
2022-11-11T08:31:20.126Z,101568.41
2022-11-11T08:32:01.089Z,101566.28
2022-11-11T08:32:41.176Z,101576.78
2022-11-11T08:33:37.536Z,101576.97
2022-11-11T08:34:17.152Z,101556.84
2022-11-11T08:34:58.105Z,101568.53
2022-11-11T08:35:39.286Z,101577.97
2022-11-11T08:36:21.652Z,101578.34
2022-11-11T08:37:02.149Z,101558.38
2022-11-11T08:37:42.115Z,101577.97
2022-11-11T08:38:32.093Z,101579.97
2022-11-11T08:39:06.755Z,101577.75
2022-11-11T08:39:54.110Z,101586.31
2022-11-11T08:40:27.792Z,101568.41
2022-11-11T08:41:19.078Z,101585.78
2022-11-11T08:41:53.285Z,101550.88
2022-11-11T08:42:40.063Z,101577.16
2022-11-11T08:43:17.412Z,101572.16
2022-11-11T08:44:03.107Z,101575.84
2022-11-11T08:44:38.142Z,101577.34
2022-11-11T08:45:13.625Z,101566.56
2022-11-11T08:45:55.123Z,101579.69